PVG8010 LFRB-EGLL

Flight info

Callsign PVG8010
Flight time 0h 42m
Altitude 28000
Route SOMEN DCT OTOFE/N0419F270 UN491 UPALO/N0425F280 UY110 REVTU UP87 ROXOG
Aircraft A321/M-SDE3FGHIRWY/LB1

Departure

Time 2026-05-06 16:10
Airport Brest Bretagne airport (LFRB)

Arrival

Time 2026-05-06 16:53
Airport London Heathrow Airport (EGLL)
Time Latitude Longitude Altitude Speed Heading
2026-05-06 15:56 48.44630 -4.41569 333 ft 0 kts 161°
2026-05-06 16:08 48.44626 -4.41559 328 ft 4 kts 119°
2026-05-06 16:09 48.44655 -4.41498 329 ft 5 kts
2026-05-06 16:09 48.44674 -4.41556 329 ft 13 kts 295°
2026-05-06 16:09 48.44756 -4.41642 332 ft 15 kts 339°
2026-05-06 16:09 48.44802 -4.41775 333 ft 30 kts 259°
2026-05-06 16:10 48.44629 -4.42555 311 ft 127 kts 251°
2026-05-06 16:10 48.44280 -4.44130 653 ft 170 kts 254°
2026-05-06 16:10 48.43892 -4.45803 1858 ft 169 kts 253°
2026-05-06 16:10 48.43570 -4.47490 2955 ft 166 kts 272°
2026-05-06 16:11 48.43889 -4.49113 3756 ft 166 kts 307°
2026-05-06 16:11 48.44842 -4.50231 4216 ft 188 kts 342°
2026-05-06 16:11 48.46194 -4.50157 4591 ft 211 kts 25°
2026-05-06 16:11 48.47304 -4.48594 5101 ft 233 kts 56°
2026-05-06 16:12 48.48264 -4.46451 5706 ft 260 kts 59°
2026-05-06 16:12 48.49264 -4.44064 6495 ft 276 kts 59°
2026-05-06 16:12 48.50276 -4.41618 7280 ft 281 kts 59°
2026-05-06 16:12 48.51322 -4.39105 8019 ft 285 kts 58°
2026-05-06 16:13 48.52385 -4.36564 8813 ft 288 kts 57°
2026-05-06 16:13 48.53471 -4.33989 9576 ft 293 kts 57°
2026-05-06 16:13 48.54578 -4.31387 10250 ft 300 kts 57°
2026-05-06 16:13 48.55752 -4.28636 10452 ft 323 kts 57°
2026-05-06 16:14 48.57012 -4.25688 10591 ft 346 kts 56°
2026-05-06 16:14 48.58348 -4.22559 10893 ft 361 kts 56°
2026-05-06 16:14 48.59701 -4.19387 11526 ft 366 kts 56°
2026-05-06 16:14 48.61084 -4.16129 12220 ft 371 kts 57°
2026-05-06 16:15 48.62480 -4.12829 12909 ft 375 kts 57°
2026-05-06 16:15 48.63888 -4.09488 13628 ft 379 kts 57°
2026-05-06 16:15 48.65315 -4.06102 14284 ft 384 kts 57°
2026-05-06 16:15 48.66756 -4.02676 14908 ft 388 kts 57°
2026-05-06 16:16 48.68214 -3.99215 15576 ft 392 kts 57°
2026-05-06 16:16 48.69683 -3.95724 16183 ft 395 kts 57°
2026-05-06 16:16 48.71163 -3.92199 16744 ft 398 kts 57°
2026-05-06 16:16 48.72652 -3.88644 17279 ft 401 kts 57°
2026-05-06 16:17 48.74131 -3.85110 17800 ft 405 kts 57°
2026-05-06 16:17 48.75648 -3.81491 18342 ft 409 kts 57°
2026-05-06 16:17 48.77178 -3.77842 18815 ft 412 kts 57°
2026-05-06 16:17 48.78717 -3.74164 19301 ft 414 kts 57°
2026-05-06 16:18 48.80261 -3.70462 19775 ft 417 kts 57°
2026-05-06 16:18 48.81815 -3.66736 20264 ft 419 kts 57°
2026-05-06 16:18 48.83376 -3.62984 20740 ft 422 kts 57°
2026-05-06 16:18 48.84928 -3.59253 21193 ft 424 kts 57°
2026-05-06 16:19 48.86504 -3.55454 21652 ft 427 kts 57°
2026-05-06 16:19 48.88087 -3.51626 22116 ft 429 kts 57°
2026-05-06 16:19 48.89677 -3.47776 22567 ft 432 kts 57°
2026-05-06 16:19 48.91279 -3.43897 23012 ft 434 kts 57°
2026-05-06 16:20 48.92889 -3.39992 23454 ft 437 kts 57°
2026-05-06 16:20 48.94505 -3.36063 23829 ft 439 kts 57°
2026-05-06 16:20 48.96127 -3.32110 24207 ft 441 kts 57°
2026-05-06 16:20 48.97756 -3.28140 24585 ft 443 kts 57°
2026-05-06 16:21 48.99369 -3.24202 24957 ft 445 kts 57°
2026-05-06 16:21 49.01007 -3.20191 25333 ft 447 kts 57°
2026-05-06 16:21 49.02654 -3.16158 25702 ft 449 kts 57°
2026-05-06 16:21 49.04307 -3.12111 26097 ft 451 kts 57°
2026-05-06 16:22 49.05968 -3.08039 26461 ft 453 kts 57°
2026-05-06 16:22 49.07632 -3.03953 26812 ft 455 kts 57°
2026-05-06 16:22 49.09301 -2.99843 27164 ft 457 kts 57°
2026-05-06 16:22 49.10979 -2.95702 27495 ft 459 kts 57°
2026-05-06 16:23 49.12634 -2.91611 27812 ft 461 kts 57°
2026-05-06 16:23 49.14320 -2.87439 27965 ft 460 kts 57°
2026-05-06 16:23 49.16189 -2.83541 27993 ft 452 kts 45°
2026-05-06 16:23 49.18578 -2.80488 27986 ft 447 kts 32°
2026-05-06 16:24 49.21203 -2.77944 27991 ft 446 kts 31°
2026-05-06 16:24 49.23834 -2.75425 27993 ft 446 kts 31°
2026-05-06 16:24 49.26469 -2.72914 27997 ft 446 kts 31°
2026-05-06 16:24 49.29104 -2.70404 28002 ft 446 kts 31°
2026-05-06 16:25 49.31700 -2.67922 28000 ft 446 kts 31°
2026-05-06 16:25 49.34329 -2.65399 28003 ft 446 kts 31°
2026-05-06 16:25 49.39580 -2.60328 28003 ft 446 kts 31°
2026-05-06 16:26 49.42205 -2.57788 27999 ft 446 kts 31°
2026-05-06 16:26 49.44828 -2.55245 28001 ft 446 kts 31°
2026-05-06 16:26 49.50070 -2.50150 28006 ft 446 kts 31°
2026-05-06 16:27 49.55275 -2.45086 28002 ft 446 kts 31°
2026-05-06 16:27 49.57895 -2.42534 27997 ft 446 kts 31°
2026-05-06 16:27 49.60516 -2.39985 27999 ft 446 kts 31°
2026-05-06 16:28 49.63138 -2.37435 27998 ft 446 kts 31°
2026-05-06 16:28 49.65758 -2.34880 27996 ft 446 kts 31°
2026-05-06 16:28 49.68381 -2.32320 27997 ft 446 kts 31°
2026-05-06 16:28 49.71000 -2.29759 27997 ft 446 kts 31°
2026-05-06 16:29 49.73583 -2.27218 27999 ft 446 kts 31°
2026-05-06 16:29 49.76199 -2.24634 28002 ft 446 kts 31°
2026-05-06 16:29 49.78816 -2.22054 28000 ft 446 kts 31°
2026-05-06 16:29 49.81436 -2.19468 27998 ft 447 kts 31°
2026-05-06 16:30 49.85794 -2.15161 28002 ft 447 kts 31°
2026-05-06 16:30 49.91927 -2.09097 28004 ft 447 kts 31°
2026-05-06 16:31 49.97167 -2.03907 28007 ft 447 kts 31°
2026-05-06 16:31 50.02369 -1.98730 28000 ft 447 kts 31°
2026-05-06 16:32 50.04984 -1.96129 28000 ft 447 kts 31°
2026-05-06 16:32 50.07604 -1.93520 27998 ft 447 kts 31°
2026-05-06 16:32 50.10215 -1.90907 27996 ft 446 kts 31°
2026-05-06 16:32 50.12825 -1.88287 27994 ft 446 kts 32°
2026-05-06 16:33 50.15439 -1.85662 27989 ft 446 kts 31°
2026-05-06 16:33 50.18049 -1.83044 27995 ft 446 kts 31°
2026-05-06 16:33 50.20628 -1.80457 27993 ft 447 kts 31°
2026-05-06 16:34 50.25855 -1.75202 27988 ft 447 kts 32°
2026-05-06 16:34 50.28469 -1.72564 27988 ft 447 kts 32°
2026-05-06 16:34 50.31084 -1.69918 27971 ft 448 kts 32°
2026-05-06 16:34 50.33703 -1.67261 27703 ft 448 kts 32°
2026-05-06 16:35 50.36321 -1.64604 27433 ft 449 kts 32°
2026-05-06 16:35 50.38942 -1.61944 27167 ft 449 kts 32°
2026-05-06 16:35 50.41565 -1.59278 26906 ft 450 kts 32°
2026-05-06 16:35 50.44158 -1.56641 26653 ft 451 kts 32°
2026-05-06 16:36 50.46793 -1.53962 26402 ft 452 kts 32°
2026-05-06 16:36 50.49432 -1.51274 26137 ft 453 kts 32°
2026-05-06 16:36 50.52062 -1.48593 25520 ft 449 kts 32°
2026-05-06 16:36 50.54672 -1.45932 24813 ft 445 kts 32°
2026-05-06 16:37 50.57259 -1.43295 24111 ft 441 kts 31°
2026-05-06 16:37 50.59820 -1.40671 23406 ft 437 kts 32°
2026-05-06 16:37 50.62351 -1.38062 22674 ft 432 kts 32°
2026-05-06 16:37 50.64846 -1.35487 22040 ft 425 kts 32°
2026-05-06 16:38 50.67273 -1.32981 21378 ft 420 kts 32°
2026-05-06 16:38 50.69707 -1.30489 20668 ft 415 kts 30°
2026-05-06 16:38 50.72255 -1.28513 19566 ft 402 kts 22°
2026-05-06 16:38 50.74772 -1.26756 18544 ft 389 kts 22°
2026-05-06 16:39 50.77223 -1.25049 17474 ft 383 kts 22°
2026-05-06 16:39 50.79646 -1.23365 16402 ft 377 kts 22°
2026-05-06 16:39 50.82029 -1.21709 15382 ft 371 kts 22°
2026-05-06 16:39 50.84389 -1.20063 14422 ft 373 kts 22°
2026-05-06 16:40 50.86773 -1.18400 13639 ft 374 kts 22°
2026-05-06 16:40 50.89131 -1.16751 13050 ft 367 kts 22°
2026-05-06 16:40 50.91410 -1.15152 12478 ft 360 kts 21°
2026-05-06 16:40 50.93679 -1.13554 11907 ft 354 kts 22°
2026-05-06 16:41 50.95912 -1.11979 11345 ft 348 kts 22°
2026-05-06 16:41 50.98104 -1.10431 10942 ft 338 kts 22°
2026-05-06 16:41 51.00197 -1.08953 10824 ft 321 kts 22°
2026-05-06 16:41 51.02183 -1.07551 10697 ft 305 kts 21°
2026-05-06 16:42 51.03452 -1.06658 10615 ft 296 kts 21°
2026-05-06 16:42 51.05303 -1.05356 10367 ft 288 kts 21°
2026-05-06 16:42 51.07702 -1.03662 10004 ft 282 kts 22°
2026-05-06 16:42 51.09488 -1.02402 9852 ft 281 kts 22°
2026-05-06 16:43 51.11274 -1.01138 9714 ft 281 kts 22°
2026-05-06 16:43 51.13058 -0.99875 9580 ft 280 kts 22°
2026-05-06 16:43 51.14835 -0.98615 9442 ft 280 kts 22°
2026-05-06 16:43 51.16012 -0.97780 9331 ft 280 kts 21°
2026-05-06 16:44 51.17790 -0.96517 8898 ft 279 kts 21°
2026-05-06 16:44 51.19563 -0.95257 8433 ft 279 kts 21°
2026-05-06 16:44 51.21330 -0.93999 8061 ft 276 kts 22°
2026-05-06 16:44 51.23645 -0.92350 7528 ft 274 kts 21°
2026-05-06 16:45 51.25367 -0.91120 7159 ft 269 kts 22°
2026-05-06 16:45 51.26514 -0.90300 6689 ft 267 kts 21°
2026-05-06 16:45 51.28192 -0.89102 6294 ft 266 kts 22°
2026-05-06 16:45 51.29884 -0.87891 5847 ft 266 kts 22°
2026-05-06 16:46 51.31560 -0.86692 5510 ft 262 kts 22°
2026-05-06 16:46 51.33219 -0.85503 5123 ft 260 kts 22°
2026-05-06 16:46 51.34868 -0.84320 4691 ft 261 kts 23°
2026-05-06 16:46 51.36527 -0.83133 4255 ft 261 kts 23°
2026-05-06 16:47 51.38177 -0.81951 3899 ft 258 kts 23°
2026-05-06 16:47 51.39804 -0.80783 3579 ft 253 kts 23°
2026-05-06 16:47 51.41378 -0.79649 3430 ft 243 kts 23°
2026-05-06 16:47 51.42880 -0.78562 3313 ft 231 kts 23°
2026-05-06 16:48 51.44290 -0.77544 3219 ft 219 kts 23°
2026-05-06 16:48 51.45639 -0.76527 3123 ft 212 kts 30°
2026-05-06 16:48 51.46730 -0.75031 3033 ft 202 kts 49°
2026-05-06 16:48 51.47408 -0.73107 2894 ft 198 kts 68°
2026-05-06 16:49 51.47634 -0.70930 2729 ft 199 kts 87°
2026-05-06 16:49 51.47641 -0.68701 2593 ft 200 kts 86°
2026-05-06 16:49 51.47657 -0.66519 2369 ft 191 kts 86°
2026-05-06 16:49 51.47670 -0.64432 2111 ft 184 kts 86°
2026-05-06 16:50 51.47682 -0.62409 1860 ft 178 kts 86°
2026-05-06 16:50 51.47691 -0.60525 1644 ft 164 kts 87°
2026-05-06 16:50 51.47699 -0.58779 1413 ft 149 kts 85°
2026-05-06 16:50 51.47708 -0.57172 1212 ft 141 kts 84°
2026-05-06 16:51 51.47715 -0.55623 1016 ft 138 kts 84°
2026-05-06 16:51 51.47725 -0.54091 830 ft 137 kts 85°
2026-05-06 16:51 51.47738 -0.52562 642 ft 137 kts 86°
2026-05-06 16:51 51.47744 -0.51032 436 ft 137 kts 86°
2026-05-06 16:52 51.47747 -0.49506 262 ft 136 kts 86°
2026-05-06 16:52 51.47750 -0.47995 107 ft 135 kts 85°
2026-05-06 16:52 51.47758 -0.46658 92 ft 98 kts 90°
2026-05-06 16:52 51.47762 -0.45788 84 ft 57 kts 90°
2026-05-06 16:53 51.47748 -0.45518 90 ft 12 kts 115°
2026-05-06 16:53 51.47678 -0.45467 86 ft 9 kts 184°
2026-05-06 16:53 51.47652 -0.45467 86 ft 1 kts 179°
2026-05-06 16:53 51.47638 -0.45467 90 ft 3 kts 179°
2026-05-06 16:54 51.47602 -0.45493 88 ft 10 kts 241°
2026-05-06 16:54 51.47595 -0.45645 90 ft 18 kts 270°
2026-05-06 16:54 51.47584 -0.45735 88 ft 7 kts 216°
2026-05-06 16:54 51.47516 -0.45786 87 ft 12 kts 246°
2026-05-06 16:55 51.47519 -0.45903 86 ft 11 kts 269°
2026-05-06 16:55 51.47518 -0.46031 86 ft 11 kts 270°
2026-05-06 16:55 51.47518 -0.46065 86 ft 0 kts 270°
2026-05-06 16:55 51.47518 -0.46068 86 ft 1 kts 270°
2026-05-06 16:56 51.47518 -0.46101 86 ft 7 kts 268°
2026-05-06 16:56 51.47517 -0.46227 86 ft 16 kts 270°
2026-05-06 16:56 51.47517 -0.46444 86 ft 20 kts 269°
2026-05-06 16:56 51.47516 -0.46655 86 ft 18 kts 270°
2026-05-06 16:57 51.47495 -0.46831 91 ft 15 kts 264°
2026-05-06 16:57 51.47429 -0.46889 86 ft 11 kts 168°
2026-05-06 16:57 51.47357 -0.46867 87 ft 11 kts 178°
2026-05-06 16:57 51.47263 -0.46867 86 ft 16 kts 180°
2026-05-06 16:58 51.47142 -0.46866 86 ft 18 kts 179°
2026-05-06 16:58 51.47025 -0.46864 86 ft 16 kts 180°
2026-05-06 16:58 51.46923 -0.46864 86 ft 14 kts 180°
2026-05-06 16:58 51.46837 -0.46863 89 ft 11 kts 180°
2026-05-06 16:59 51.46825 -0.46863 88 ft 0 kts 179°
2026-05-06 16:59 51.46814 -0.46863 89 ft 5 kts 179°
2026-05-06 16:59 51.46757 -0.46837 88 ft 10 kts 130°
2026-05-06 17:00 51.46747 -0.46686 91 ft 17 kts 89°
2026-05-06 17:00 51.46748 -0.46504 86 ft 15 kts 89°
2026-05-06 17:00 51.46748 -0.46344 86 ft 13 kts 91°
2026-05-06 17:00 51.46747 -0.46207 89 ft 12 kts 90°
2026-05-06 17:01 51.46748 -0.46018 87 ft 23 kts 88°
2026-05-06 17:01 51.46749 -0.45715 86 ft 28 kts 90°
2026-05-06 17:01 51.46749 -0.45423 86 ft 25 kts 90°
2026-05-06 17:01 51.46751 -0.45157 86 ft 23 kts 89°
2026-05-06 17:02 51.46750 -0.44896 86 ft 25 kts 89°
2026-05-06 17:02 51.46751 -0.44624 86 ft 23 kts 89°
2026-05-06 17:02 51.46753 -0.44378 86 ft 21 kts 90°
2026-05-06 17:02 51.46753 -0.44160 86 ft 19 kts 89°
2026-05-06 17:03 51.46800 -0.44056 87 ft 10 kts
2026-05-06 17:03 51.46898 -0.44054 88 ft 19 kts
2026-05-06 17:03 51.47051 -0.44056 87 ft 23 kts 359°
2026-05-06 17:03 51.47162 -0.44061 90 ft 5 kts 336°
2026-05-06 17:04 51.47171 -0.44096 86 ft 3 kts 277°
2026-05-06 17:04 51.47170 -0.44132 86 ft 3 kts 265°
2026-05-06 17:04 51.47169 -0.44152 86 ft 2 kts 265°
2026-05-06 17:04 51.47168 -0.44168 86 ft 1 kts 265°
2026-05-06 17:05 51.47167 -0.44177 86 ft 0 kts 265°